Time;durP1;ratioP1;P1;durP2;ratioP2;P2;SDS_P1;SDS_P2;PMS_P1;PMS_P2;Temp;Humidity;BMP_temperature;BMP_pressure;BME280_temperature;BME280_humidity;BME280_pressure;Samples;Min_cycle;Max_cycle;Signal;HPM_P1;HPM_P2
2024/02/05 00:01:29;;;;;;;4.80;4.23;;;7.90;1.00;;;;;;5108204;27;20538;-71
2024/02/05 00:03:56;;;;;;;4.63;4.23;;;7.90;1.00;;;;;;5110573;27;20469;-70
2024/02/05 00:06:23;;;;;;;5.03;4.60;;;8.00;1.00;;;;;;5108772;27;20452;-71
2024/02/05 00:08:51;;;;;;;6.80;4.70;;;8.00;1.00;;;;;;5112093;27;20468;-74
2024/02/05 00:11:17;;;;;;;4.80;4.40;;;8.00;1.00;;;;;;5110123;27;20494;-73
2024/02/05 00:13:44;;;;;;;4.90;4.43;;;8.00;1.00;;;;;;5109988;28;20464;-72
2024/02/05 00:16:13;;;;;;;5.53;4.43;;;8.00;1.00;;;;;;5107953;27;20485;-72
2024/02/05 00:18:41;;;;;;;4.70;4.30;;;8.10;1.00;;;;;;5111281;27;20461;-71
2024/02/05 00:21:08;;;;;;;4.50;4.10;;;8.10;1.00;;;;;;5111828;27;20481;-71
2024/02/05 00:23:35;;;;;;;4.67;4.27;;;8.20;1.00;;;;;;5111352;28;20887;-73
2024/02/05 00:26:03;;;;;;;5.00;3.90;;;8.20;1.00;;;;;;5106896;27;20473;-74
2024/02/05 00:28:30;;;;;;;4.50;4.10;;;8.20;1.00;;;;;;5112955;28;20449;-71
2024/02/05 00:30:57;;;;;;;4.10;3.70;;;8.30;1.00;;;;;;5111515;28;20903;-72
2024/02/05 00:33:25;;;;;;;3.87;3.57;;;8.30;1.00;;;;;;5111895;28;21168;-71
2024/02/05 00:35:52;;;;;;;3.87;3.50;;;8.40;1.00;;;;;;5110979;27;20481;-71
2024/02/05 00:38:19;;;;;;;4.00;3.60;;;8.40;1.00;;;;;;5114333;27;21352;-74
2024/02/05 00:40:47;;;;;;;4.30;3.90;;;8.50;1.00;;;;;;5112537;27;20472;-75
2024/02/05 00:43:15;;;;;;;3.17;2.90;;;8.60;1.00;;;;;;5112436;27;20972;-74
2024/02/05 00:45:42;;;;;;;3.30;3.00;;;8.70;1.00;;;;;;5111255;27;20467;-75
2024/02/05 00:48:09;;;;;;;3.10;2.40;;;8.80;1.00;;;;;;5109048;27;20559;-76
2024/02/05 00:50:38;;;;;;;3.00;2.60;;;8.80;1.00;;;;;;5108697;27;20474;-77
2024/02/05 00:53:05;;;;;;;2.60;2.40;;;8.90;1.00;;;;;;5109156;27;20503;-74
2024/02/05 00:55:32;;;;;;;2.50;2.30;;;9.00;1.00;;;;;;5111309;28;20945;-76
2024/02/05 00:57:59;;;;;;;2.67;2.47;;;9.10;1.00;;;;;;5111588;27;20504;-76
2024/02/05 01:00:26;;;;;;;2.30;2.10;;;9.10;1.00;;;;;;5110274;27;20542;-74
2024/02/05 01:02:53;;;;;;;2.27;2.07;;;9.20;1.00;;;;;;5108907;27;20510;-74
2024/02/05 01:05:20;;;;;;;4.07;2.20;;;9.30;1.00;;;;;;5111807;27;20598;-76
2024/02/05 01:07:49;;;;;;;1.63;1.53;;;9.40;1.00;;;;;;5109541;27;20486;-74
2024/02/05 01:10:17;;;;;;;1.57;1.40;;;9.40;1.00;;;;;;5110461;27;20569;-74
2024/02/05 01:12:43;;;;;;;1.50;1.30;;;9.40;1.00;;;;;;5110008;27;20530;-76
2024/02/05 01:15:11;;;;;;;4.90;4.50;;;9.50;1.00;;;;;;5108556;27;21053;-76
2024/02/05 01:17:38;;;;;;;1.57;1.40;;;9.50;1.00;;;;;;5113178;28;20500;-75
2024/02/05 01:20:10;;;;;;;1.20;0.90;;;9.60;1.00;;;;;;5110520;27;20467;-74
2024/02/05 01:22:38;;;;;;;1.30;1.00;;;9.60;1.00;;;;;;5111613;28;20516;-74
2024/02/05 01:25:08;;;;;;;0.80;0.70;;;9.70;1.00;;;;;;5107551;27;21216;-76
2024/02/05 01:27:34;;;;;;;1.33;0.80;;;9.70;1.00;;;;;;5106677;27;20503;-76
2024/02/05 01:30:03;;;;;;;1.00;0.90;;;9.80;1.00;;;;;;5108136;27;20470;-76
2024/02/05 01:32:31;;;;;;;1.07;0.90;;;9.80;1.00;;;;;;5079265;28;20442;-76
2024/02/05 01:35:00;;;;;;;2.27;1.10;;;9.80;1.00;;;;;;5112160;27;20458;-75
2024/02/05 01:37:27;;;;;;;1.30;1.20;;;9.80;1.00;;;;;;5115038;27;20468;-76
2024/02/05 01:39:54;;;;;;;1.07;0.87;;;9.90;1.00;;;;;;5112716;27;20468;-76
2024/02/05 01:42:23;;;;;;;1.20;1.00;;;9.90;1.00;;;;;;5113800;27;20484;-75
2024/02/05 01:44:50;;;;;;;1.43;1.20;;;9.90;1.00;;;;;;5113951;27;20461;-76
2024/02/05 01:47:18;;;;;;;1.50;1.07;;;10.00;1.00;;;;;;5114958;27;20525;-72
2024/02/05 01:49:45;;;;;;;1.47;1.37;;;10.00;1.00;;;;;;5113207;27;21298;-73
2024/02/05 01:52:19;;;;;;;1.20;1.07;;;10.00;1.00;;;;;;5113976;27;20457;-73
2024/02/05 01:54:51;;;;;;;1.17;1.07;;;10.00;1.00;;;;;;5112293;28;20957;-74
2024/02/05 01:57:18;;;;;;;1.30;1.17;;;10.00;1.00;;;;;;5113391;27;20453;-72
2024/02/05 01:59:47;;;;;;;1.60;1.50;;;10.10;1.00;;;;;;5111247;27;20619;-73
2024/02/05 02:02:15;;;;;;;1.50;1.37;;;10.10;1.00;;;;;;5110640;27;20559;-74
2024/02/05 02:04:42;;;;;;;1.43;1.30;;;10.10;1.00;;;;;;5113397;27;20450;-74
2024/02/05 02:07:11;;;;;;;3.20;1.20;;;10.10;1.00;;;;;;5102282;28;20544;-72
2024/02/05 02:09:38;;;;;;;1.50;1.30;;;10.10;1.00;;;;;;5111869;27;20481;-72
2024/02/05 02:12:06;;;;;;;1.20;1.10;;;10.10;1.00;;;;;;5111619;27;20571;-72
2024/02/05 02:14:33;;;;;;;2.53;2.33;;;10.10;1.00;;;;;;5111698;27;20486;-73
2024/02/05 02:17:01;;;;;;;2.00;1.27;;;10.20;1.00;;;;;;5113449;27;20456;-73
2024/02/05 02:19:36;;;;;;;1.30;1.20;;;10.20;1.00;;;;;;5112740;27;20541;-72
2024/02/05 02:22:09;;;;;;;1.20;0.97;;;10.20;1.00;;;;;;5114143;27;20474;-73
2024/02/05 02:24:37;;;;;;;1.50;1.40;;;10.20;1.00;;;;;;5109970;27;20483;-73
2024/02/05 02:27:05;;;;;;;1.67;1.27;;;10.20;1.00;;;;;;5111319;27;21108;-74
2024/02/05 02:29:32;;;;;;;1.00;0.90;;;10.20;1.00;;;;;;5115126;27;20684;-72
2024/02/05 02:32:12;;;;;;;1.23;1.07;;;10.20;1.00;;;;;;5112367;28;20986;-72
2024/02/05 02:34:42;;;;;;;1.60;0.90;;;10.20;1.00;;;;;;5109326;27;20474;-74
2024/02/05 02:37:12;;;;;;;1.33;1.23;;;10.20;1.00;;;;;;5112644;27;20457;-72
2024/02/05 02:39:48;;;;;;;2.80;0.80;;;10.20;1.00;;;;;;5112335;27;20522;-73
2024/02/05 02:42:17;;;;;;;1.40;1.00;;;10.20;1.00;;;;;;5111339;27;20536;-72
2024/02/05 02:44:45;;;;;;;1.10;1.00;;;10.20;1.00;;;;;;5113674;27;20458;-73
2024/02/05 02:47:12;;;;;;;1.50;1.30;;;10.20;1.00;;;;;;5110997;27;20454;-72
2024/02/05 02:49:39;;;;;;;1.67;1.30;;;10.30;1.00;;;;;;5107834;27;21301;-71
2024/02/05 02:52:06;;;;;;;1.27;1.07;;;10.20;1.00;;;;;;5113211;27;20485;-72
2024/02/05 02:54:33;;;;;;;1.30;1.20;;;10.20;1.00;;;;;;5110300;27;20459;-72
2024/02/05 02:57:02;;;;;;;1.10;1.00;;;10.20;1.00;;;;;;5113810;27;20973;-76
2024/02/05 02:59:29;;;;;;;1.40;1.20;;;10.20;1.00;;;;;;5110546;27;20429;-76
2024/02/05 03:01:56;;;;;;;1.47;1.20;;;10.20;1.00;;;;;;5111637;27;20445;-76
2024/02/05 03:04:23;;;;;;;1.73;1.07;;;10.20;1.00;;;;;;5110509;27;20453;-75
2024/02/05 03:06:49;;;;;;;2.20;1.57;;;10.30;1.00;;;;;;5111884;27;21052;-75
2024/02/05 03:09:16;;;;;;;1.60;0.83;;;10.20;1.00;;;;;;5111034;27;20560;-76
2024/02/05 03:11:43;;;;;;;0.97;0.80;;;10.20;1.00;;;;;;5111258;27;20465;-76
2024/02/05 03:14:12;;;;;;;1.43;1.07;;;10.20;1.00;;;;;;5110533;28;20454;-75
2024/02/05 03:16:39;;;;;;;1.80;0.90;;;10.20;1.00;;;;;;5109483;27;20544;-75
2024/02/05 03:19:06;;;;;;;1.70;0.90;;;10.30;1.00;;;;;;5109717;27;21308;-75
2024/02/05 03:21:32;;;;;;;1.10;1.00;;;10.30;1.00;;;;;;5110905;27;20529;-76
2024/02/05 03:23:59;;;;;;;1.17;0.83;;;10.30;1.00;;;;;;5110293;27;20482;-74
2024/02/05 03:26:26;;;;;;;1.07;0.90;;;10.30;1.00;;;;;;5110027;28;20542;-76
2024/02/05 03:28:53;;;;;;;1.33;1.20;;;10.30;1.00;;;;;;5111714;27;20501;-75
2024/02/05 03:31:22;;;;;;;0.87;0.87;;;10.20;1.00;;;;;;5111193;27;20810;-74
2024/02/05 03:33:49;;;;;;;1.10;0.80;;;10.20;1.00;;;;;;5110834;27;20537;-75
2024/02/05 03:36:16;;;;;;;1.23;0.70;;;10.20;1.00;;;;;;5108215;27;20511;-75
2024/02/05 03:38:43;;;;;;;1.80;0.73;;;10.20;1.00;;;;;;5110044;27;20559;-77
2024/02/05 03:41:10;;;;;;;0.93;0.80;;;10.20;1.00;;;;;;5109798;28;20489;-77
2024/02/05 03:43:37;;;;;;;1.00;0.80;;;10.20;1.00;;;;;;5109683;27;20619;-76
2024/02/05 03:46:04;;;;;;;1.10;0.73;;;10.20;1.00;;;;;;5107904;28;21004;-75
2024/02/05 03:48:32;;;;;;;1.50;1.00;;;10.20;1.00;;;;;;5111662;27;20453;-75
2024/02/05 03:50:59;;;;;;;1.00;0.73;;;10.20;1.00;;;;;;5109848;27;20523;-75
2024/02/05 03:53:26;;;;;;;1.20;1.00;;;10.30;1.00;;;;;;5111677;27;20462;-75
2024/02/05 03:55:54;;;;;;;1.87;1.20;;;10.30;1.00;;;;;;5111549;27;20889;-75
2024/02/05 03:58:21;;;;;;;1.10;0.80;;;10.30;1.00;;;;;;5110478;27;20557;-75
2024/02/05 04:00:48;;;;;;;1.87;1.30;;;10.30;1.00;;;;;;5111259;27;20537;-76
2024/02/05 04:03:15;;;;;;;1.60;1.20;;;10.30;1.00;;;;;;5111606;27;20473;-75
2024/02/05 04:05:44;;;;;;;2.00;1.80;;;10.30;1.00;;;;;;5107418;27;20881;-75
2024/02/05 04:08:11;;;;;;;1.30;1.10;;;10.30;1.00;;;;;;5110398;27;20564;-77
2024/02/05 04:10:38;;;;;;;1.10;1.00;;;10.30;1.00;;;;;;5111275;27;20453;-76
2024/02/05 04:13:05;;;;;;;0.83;0.73;;;10.30;1.00;;;;;;5110878;27;20508;-75
2024/02/05 04:15:32;;;;;;;1.10;0.70;;;10.30;1.00;;;;;;5108728;28;20454;-76
2024/02/05 04:18:00;;;;;;;1.50;1.03;;;10.30;1.00;;;;;;5111297;27;20477;-77
2024/02/05 04:20:27;;;;;;;1.87;0.90;;;10.30;1.00;;;;;;5112789;27;20442;-76
2024/02/05 04:22:56;;;;;;;2.50;1.23;;;10.30;1.00;;;;;;5111125;27;20468;-78
2024/02/05 04:25:23;;;;;;;1.50;1.07;;;10.30;1.00;;;;;;5108594;27;20465;-76
2024/02/05 04:27:50;;;;;;;2.00;1.10;;;10.30;1.00;;;;;;5110371;27;20818;-76
2024/02/05 04:30:17;;;;;;;1.00;0.90;;;10.30;1.00;;;;;;5108924;27;20513;-77
2024/02/05 04:32:44;;;;;;;3.47;1.33;;;10.30;1.00;;;;;;5112739;27;20893;-76
2024/02/05 04:35:11;;;;;;;2.03;1.17;;;10.30;1.00;;;;;;5111192;27;20597;-76
2024/02/05 04:37:38;;;;;;;2.23;1.47;;;10.30;1.00;;;;;;5112509;27;20554;-76
2024/02/05 04:40:08;;;;;;;1.80;1.00;;;10.30;1.00;;;;;;5109404;28;20984;-76
2024/02/05 04:42:35;;;;;;;3.90;1.23;;;10.30;1.00;;;;;;5111264;28;20469;-78
2024/02/05 04:45:02;;;;;;;1.07;0.97;;;10.30;1.00;;;;;;5108893;27;20529;-77
2024/02/05 04:47:29;;;;;;;1.50;1.20;;;10.30;1.00;;;;;;5110196;27;20509;-78
2024/02/05 04:49:56;;;;;;;2.77;2.00;;;10.30;1.00;;;;;;5112815;28;20486;-76
2024/02/05 04:52:23;;;;;;;1.60;1.50;;;10.30;1.00;;;;;;5108595;27;21450;-76
2024/02/05 04:54:50;;;;;;;1.27;0.93;;;10.30;1.00;;;;;;5109393;27;20450;-76
2024/02/05 04:57:19;;;;;;;1.30;1.10;;;10.30;1.00;;;;;;5105144;27;20935;-77
2024/02/05 04:59:46;;;;;;;2.23;1.73;;;10.20;1.00;;;;;;5110243;27;20450;-76
2024/02/05 05:02:13;;;;;;;1.70;1.13;;;10.20;1.00;;;;;;5104820;28;20462;-76
2024/02/05 05:04:42;;;;;;;2.93;1.53;;;10.20;1.00;;;;;;5099552;27;20467;-75
2024/02/05 05:07:09;;;;;;;2.20;1.67;;;10.20;1.00;;;;;;5108569;27;20465;-76
2024/02/05 05:09:36;;;;;;;4.33;1.67;;;10.20;1.00;;;;;;5109952;27;20462;-77
2024/02/05 05:12:03;;;;;;;1.50;1.23;;;10.20;1.00;;;;;;5112175;27;20527;-75
2024/02/05 05:14:31;;;;;;;1.40;1.27;;;10.20;1.00;;;;;;5111179;27;20477;-75
2024/02/05 05:16:59;;;;;;;2.07;1.60;;;10.20;1.00;;;;;;5114399;27;20474;-75
2024/02/05 05:19:26;;;;;;;2.37;1.30;;;10.20;1.00;;;;;;5114188;27;20528;-75
2024/02/05 05:21:55;;;;;;;3.00;1.50;;;10.20;1.00;;;;;;5113845;27;20489;-76
2024/02/05 05:24:22;;;;;;;4.27;1.70;;;10.10;1.00;;;;;;5109682;27;20489;-76
2024/02/05 05:26:49;;;;;;;2.07;1.50;;;10.10;1.00;;;;;;5112952;28;20469;-76
2024/02/05 05:29:16;;;;;;;3.00;1.57;;;10.10;1.00;;;;;;5112288;27;20511;-77
2024/02/05 05:31:45;;;;;;;3.93;1.57;;;10.10;1.00;;;;;;5110825;27;20522;-77
2024/02/05 05:34:12;;;;;;;3.13;1.60;;;10.10;1.00;;;;;;5110758;27;20631;-76
2024/02/05 05:36:39;;;;;;;4.17;1.83;;;10.10;1.00;;;;;;5112279;28;20561;-78
2024/02/05 05:39:06;;;;;;;2.30;1.30;;;10.20;1.00;;;;;;5113859;27;20575;-76
2024/02/05 05:41:35;;;;;;;2.30;1.40;;;10.10;1.00;;;;;;5112798;27;20461;-75
2024/02/05 05:44:02;;;;;;;3.17;1.70;;;10.10;1.00;;;;;;5114053;27;20477;-76
2024/02/05 05:46:29;;;;;;;1.53;1.23;;;10.10;1.00;;;;;;5112276;27;20437;-77
2024/02/05 05:48:58;;;;;;;3.00;1.30;;;10.20;1.00;;;;;;5114601;27;20542;-73
2024/02/05 05:51:24;;;;;;;2.43;1.50;;;10.10;1.00;;;;;;5110415;27;20531;-72
2024/02/05 05:53:51;;;;;;;2.70;1.33;;;10.10;1.00;;;;;;5113112;27;20576;-71
2024/02/05 05:56:18;;;;;;;5.43;1.43;;;10.10;1.00;;;;;;5104006;27;20589;-71
2024/02/05 05:58:45;;;;;;;2.63;1.53;;;10.10;1.00;;;;;;5112118;27;20449;-70
2024/02/05 06:01:12;;;;;;;2.20;1.33;;;10.20;1.00;;;;;;5110225;28;20477;-69
2024/02/05 06:03:41;;;;;;;2.20;1.57;;;10.20;1.00;;;;;;5111058;27;20454;-69
2024/02/05 06:06:09;;;;;;;5.17;2.70;;;10.20;1.00;;;;;;5111077;27;21035;-72
2024/02/05 06:08:36;;;;;;;3.47;1.50;;;10.20;1.00;;;;;;5107799;27;20457;-70
2024/02/05 06:11:03;;;;;;;2.40;1.50;;;10.30;1.00;;;;;;5108924;27;20489;-70
2024/02/05 06:13:31;;;;;;;0.83;0.77;;;10.30;1.00;;;;;;5107096;27;20489;-70
2024/02/05 06:15:58;;;;;;;5.07;1.47;;;10.30;1.00;;;;;;5110506;27;20538;-73
2024/02/05 06:18:25;;;;;;;1.60;0.97;;;10.30;1.00;;;;;;5108554;27;20574;-71
2024/02/05 06:20:52;;;;;;;3.33;1.60;;;10.30;1.00;;;;;;5109617;27;21399;-69
2024/02/05 06:23:20;;;;;;;2.00;1.00;;;10.30;1.00;;;;;;5107440;27;20454;-70
2024/02/05 06:25:47;;;;;;;1.43;0.53;;;10.30;1.00;;;;;;5107089;27;20473;-75
2024/02/05 06:28:14;;;;;;;2.20;0.80;;;10.30;1.00;;;;;;5110699;27;20922;-70
2024/02/05 06:30:45;;;;;;;0.90;0.70;;;10.30;1.00;;;;;;5112052;27;20446;-70
2024/02/05 06:33:12;;;;;;;1.00;0.90;;;10.30;1.00;;;;;;5107563;27;20943;-71
2024/02/05 06:35:39;;;;;;;1.40;1.10;;;10.30;1.00;;;;;;5113856;27;20474;-71
2024/02/05 06:38:06;;;;;;;0.90;0.80;;;10.30;1.00;;;;;;5112864;27;20473;-72
2024/02/05 06:40:34;;;;;;;2.10;1.10;;;10.30;1.00;;;;;;5111787;27;20442;-72
2024/02/05 06:43:02;;;;;;;4.30;1.17;;;10.30;1.00;;;;;;5108838;27;20539;-70
2024/02/05 06:45:28;;;;;;;1.23;1.13;;;10.20;1.00;;;;;;5108688;27;20465;-71
2024/02/05 06:47:57;;;;;;;1.77;1.27;;;10.20;1.00;;;;;;5108659;27;20485;-70
2024/02/05 06:50:24;;;;;;;3.37;1.20;;;10.20;1.00;;;;;;5112549;27;20505;-74
2024/02/05 06:52:51;;;;;;;2.67;1.10;;;10.20;1.00;;;;;;5108085;27;20487;-70
2024/02/05 06:55:19;;;;;;;1.40;1.00;;;10.20;1.00;;;;;;5108378;27;20568;-69
2024/02/05 06:57:48;;;;;;;1.80;1.07;;;10.20;1.00;;;;;;5107928;27;20530;-70
2024/02/05 07:00:16;;;;;;;3.20;1.07;;;10.20;1.00;;;;;;5106210;27;20463;-71
2024/02/05 07:02:43;;;;;;;1.10;0.80;;;10.20;1.00;;;;;;5107276;27;20445;-70
2024/02/05 07:05:11;;;;;;;2.93;1.23;;;10.20;1.00;;;;;;5109616;27;21174;-69
2024/02/05 07:07:38;;;;;;;1.63;1.20;;;10.20;1.00;;;;;;5109320;28;20457;-71
2024/02/05 07:10:05;;;;;;;3.63;1.20;;;10.20;1.00;;;;;;5109744;27;20585;-70
2024/02/05 07:12:32;;;;;;;1.70;1.30;;;10.20;1.00;;;;;;5105791;27;20546;-70
2024/02/05 07:15:01;;;;;;;2.40;1.00;;;10.20;1.00;;;;;;5108650;27;20478;-70
2024/02/05 07:17:32;;;;;;;0.80;0.80;;;10.20;1.00;;;;;;5107179;27;20466;-73
2024/02/05 07:20:01;;;;;;;1.37;0.87;;;10.20;1.00;;;;;;5111772;27;20891;-71
2024/02/05 07:22:28;;;;;;;2.13;1.17;;;10.20;1.00;;;;;;5107690;27;20533;-69
2024/02/05 07:24:55;;;;;;;0.87;0.70;;;10.20;1.00;;;;;;5109854;28;20502;-69
2024/02/05 07:27:23;;;;;;;2.13;0.90;;;10.20;1.00;;;;;;5109352;27;20481;-71
2024/02/05 07:29:51;;;;;;;1.80;0.83;;;10.20;1.00;;;;;;5104510;27;20463;-74
2024/02/05 07:32:22;;;;;;;1.33;0.93;;;10.20;1.00;;;;;;5103022;27;20640;-72
2024/02/05 07:34:49;;;;;;;2.07;1.00;;;10.20;1.00;;;;;;5103364;27;20454;-70
2024/02/05 07:37:16;;;;;;;1.13;0.70;;;10.20;1.00;;;;;;5105812;27;21269;-71
2024/02/05 07:39:43;;;;;;;1.40;1.10;;;10.20;1.00;;;;;;5112677;27;20541;-71
2024/02/05 07:42:10;;;;;;;1.70;1.43;;;10.20;1.00;;;;;;5106722;27;20576;-73
2024/02/05 07:44:37;;;;;;;1.73;1.03;;;10.20;1.00;;;;;;5107373;27;20485;-70
2024/02/05 07:47:04;;;;;;;3.13;2.23;;;10.20;1.00;;;;;;5103912;27;20580;-73
2024/02/05 07:49:33;;;;;;;2.13;1.60;;;10.20;1.00;;;;;;5107364;27;20492;-72
2024/02/05 07:51:59;;;;;;;1.20;1.10;;;10.20;1.00;;;;;;5111861;27;20477;-71
2024/02/05 07:54:27;;;;;;;1.60;1.17;;;10.20;1.00;;;;;;5109656;27;20466;-71
2024/02/05 07:56:56;;;;;;;3.33;1.13;;;10.20;1.00;;;;;;5108248;27;20549;-71
2024/02/05 07:59:23;;;;;;;2.37;1.53;;;10.20;1.00;;;;;;5109595;27;20475;-71
2024/02/05 08:01:50;;;;;;;2.67;1.50;;;10.20;1.00;;;;;;5110452;27;20480;-69
2024/02/05 08:04:17;;;;;;;1.97;1.53;;;10.20;1.00;;;;;;5108087;27;20992;-75
2024/02/05 08:06:46;;;;;;;3.17;1.37;;;10.20;1.00;;;;;;5106207;27;20564;-76
2024/02/05 08:09:13;;;;;;;2.20;1.60;;;10.20;1.00;;;;;;5110611;27;20458;-71
2024/02/05 08:11:41;;;;;;;1.80;1.43;;;10.20;1.00;;;;;;5110589;27;20535;-70
2024/02/05 08:14:10;;;;;;;2.13;1.50;;;10.20;1.00;;;;;;5106498;27;20486;-71
2024/02/05 08:16:37;;;;;;;1.83;1.50;;;10.10;1.00;;;;;;5108093;27;20949;-70
2024/02/05 08:19:05;;;;;;;4.40;2.30;;;10.10;1.00;;;;;;5108119;27;21297;-74
2024/02/05 08:21:32;;;;;;;2.83;2.00;;;10.10;1.00;;;;;;5110626;27;20489;-71
2024/02/05 08:24:00;;;;;;;1.90;1.80;;;10.10;1.00;;;;;;5109420;27;20523;-70
2024/02/05 08:26:27;;;;;;;4.00;1.87;;;10.10;1.00;;;;;;5107942;27;20525;-69
2024/02/05 08:28:54;;;;;;;3.70;1.83;;;10.10;1.00;;;;;;5108544;27;20500;-72
2024/02/05 08:31:21;;;;;;;3.70;2.80;;;10.20;1.00;;;;;;5107025;27;20549;-70
2024/02/05 08:33:48;;;;;;;2.77;2.43;;;10.10;1.00;;;;;;5110770;27;20505;-69
2024/02/05 08:36:16;;;;;;;8.57;2.97;;;10.10;1.00;;;;;;5107990;27;20457;-73
2024/02/05 08:38:43;;;;;;;3.53;2.57;;;10.10;1.00;;;;;;5108894;27;20481;-72
2024/02/05 08:41:12;;;;;;;6.17;2.97;;;10.10;1.00;;;;;;5108228;27;20489;-69
2024/02/05 08:43:39;;;;;;;5.30;2.77;;;10.10;1.00;;;;;;5107905;27;20465;-71
2024/02/05 08:46:06;;;;;;;6.03;2.87;;;10.10;1.00;;;;;;5108295;27;20456;-69
2024/02/05 08:48:36;;;;;;;2.90;2.60;;;10.10;1.00;;;;;;5105831;27;21869;-69
2024/02/05 08:51:03;;;;;;;4.10;2.80;;;10.10;1.00;;;;;;5108136;27;21742;-70
2024/02/05 08:53:30;;;;;;;3.50;2.87;;;10.10;1.00;;;;;;5107840;27;20461;-71
2024/02/05 08:55:57;;;;;;;5.10;2.90;;;10.10;1.00;;;;;;5106121;27;20568;-70
2024/02/05 08:58:26;;;;;;;5.27;2.90;;;10.10;1.00;;;;;;5108341;27;20470;-70
2024/02/05 09:00:53;;;;;;;3.83;3.10;;;10.10;1.00;;;;;;5109399;27;20504;-68
2024/02/05 09:03:21;;;;;;;5.07;3.40;;;10.10;1.00;;;;;;5108615;27;20466;-70
2024/02/05 09:05:51;;;;;;;6.03;3.20;;;10.10;1.00;;;;;;5108182;27;20561;-70
2024/02/05 09:08:18;;;;;;;4.50;3.10;;;10.10;1.00;;;;;;5105764;27;21529;-71
2024/02/05 09:10:45;;;;;;;4.90;3.70;;;10.10;1.00;;;;;;5106285;27;20480;-72
2024/02/05 09:13:13;;;;;;;6.60;3.60;;;10.10;1.00;;;;;;5107515;27;20483;-70
2024/02/05 09:15:42;;;;;;;3.73;3.40;;;10.10;1.00;;;;;;5109200;27;20454;-70
2024/02/05 09:18:09;;;;;;;5.23;3.30;;;10.10;1.00;;;;;;5111133;27;20458;-72
2024/02/05 09:20:36;;;;;;;8.60;3.90;;;10.10;1.00;;;;;;5109044;27;20548;-74
2024/02/05 09:23:03;;;;;;;9.27;3.20;;;10.10;1.00;;;;;;5111425;27;20489;-73
2024/02/05 09:25:30;;;;;;;5.30;3.60;;;10.10;1.00;;;;;;5109214;27;20454;-75
2024/02/05 09:27:57;;;;;;;5.67;3.77;;;10.10;1.00;;;;;;5111669;27;20541;-74
2024/02/05 09:30:24;;;;;;;8.27;3.67;;;10.10;1.00;;;;;;5108485;27;20448;-74
2024/02/05 09:32:52;;;;;;;7.10;3.90;;;10.10;1.00;;;;;;5106493;27;20557;-72
2024/02/05 09:35:19;;;;;;;7.67;3.73;;;10.00;1.00;;;;;;5109391;27;20541;-75
2024/02/05 09:37:46;;;;;;;7.20;4.23;;;10.00;1.00;;;;;;5109832;27;20888;-73
2024/02/05 09:40:13;;;;;;;7.10;5.00;;;10.00;1.00;;;;;;5107744;27;20461;-73
2024/02/05 09:42:41;;;;;;;6.93;4.50;;;10.00;1.00;;;;;;5108692;28;20572;-73
2024/02/05 09:45:12;;;;;;;7.17;4.60;;;9.90;1.00;;;;;;5107601;27;20861;-72
2024/02/05 09:47:40;;;;;;;8.33;4.53;;;9.90;1.00;;;;;;5105063;27;21079;-73
2024/02/05 09:50:11;;;;;;;6.70;4.73;;;9.90;1.00;;;;;;5106126;28;20472;-73
2024/02/05 09:52:41;;;;;;;9.93;5.20;;;9.90;1.00;;;;;;5107824;27;20473;-72
2024/02/05 09:55:10;;;;;;;13.87;4.90;;;9.90;1.00;;;;;;5108340;27;20454;-75
2024/02/05 09:57:38;;;;;;;8.10;4.80;;;9.90;1.00;;;;;;5106822;27;20442;-73
2024/02/05 10:00:07;;;;;;;8.83;5.23;;;9.90;1.00;;;;;;5106076;27;20922;-73
2024/02/05 10:02:35;;;;;;;12.10;5.87;;;9.90;1.00;;;;;;5107208;27;20556;-75
2024/02/05 10:05:04;;;;;;;11.87;5.23;;;9.90;1.00;;;;;;5109056;27;20449;-72
2024/02/05 10:07:34;;;;;;;9.77;4.93;;;9.90;1.00;;;;;;5109288;27;20515;-74
2024/02/05 10:10:02;;;;;;;9.80;5.73;;;9.90;1.00;;;;;;5103043;27;20454;-73
2024/02/05 10:12:32;;;;;;;9.60;5.00;;;9.80;1.00;;;;;;5092705;28;20469;-73
2024/02/05 10:15:00;;;;;;;8.77;5.30;;;9.80;1.00;;;;;;5091688;28;21041;-73
2024/02/05 10:17:28;;;;;;;8.60;4.97;;;9.90;1.00;;;;;;5089527;28;20520;-73
2024/02/05 10:19:56;;;;;;;10.70;4.83;;;9.80;1.00;;;;;;5092798;28;20478;-74
2024/02/05 10:22:23;;;;;;;8.10;5.30;;;9.80;1.00;;;;;;5087646;27;20466;-74
2024/02/05 10:24:52;;;;;;;9.23;5.10;;;9.80;1.00;;;;;;5091833;28;20546;-75
2024/02/05 10:27:19;;;;;;;12.27;6.00;;;9.80;1.00;;;;;;5090510;28;20458;-73
2024/02/05 10:29:46;;;;;;;13.23;5.87;;;9.80;1.00;;;;;;5090128;28;20478;-70
2024/02/05 10:32:20;;;;;;;9.60;5.00;;;9.80;1.00;;;;;;5090962;28;20502;-70
2024/02/05 10:34:52;;;;;;;10.40;4.27;;;9.70;1.00;;;;;;5090906;28;20450;-69
2024/02/05 10:37:23;;;;;;;7.17;4.37;;;9.80;1.00;;;;;;5091553;28;20466;-69
2024/02/05 10:39:51;;;;;;;8.67;4.40;;;9.80;1.00;;;;;;5091126;28;20521;-70
2024/02/05 10:42:18;;;;;;;8.30;4.20;;;9.70;1.00;;;;;;5091951;28;20552;-71
2024/02/05 10:44:45;;;;;;;6.57;4.00;;;9.80;1.00;;;;;;5090864;28;20477;-75
2024/02/05 10:47:13;;;;;;;7.40;4.20;;;9.80;1.00;;;;;;5093299;28;20490;-74
2024/02/05 10:49:40;;;;;;;8.13;3.70;;;9.80;1.00;;;;;;5091047;28;20458;-71
2024/02/05 10:52:07;;;;;;;7.30;3.90;;;9.70;1.00;;;;;;5093683;28;21137;-72
2024/02/05 10:54:37;;;;;;;6.50;4.23;;;9.70;1.00;;;;;;5093015;28;21052;-72
2024/02/05 10:57:08;;;;;;;11.00;4.97;;;9.80;1.00;;;;;;5090190;28;20898;-71
2024/02/05 10:59:35;;;;;;;8.93;4.90;;;9.70;1.00;;;;;;5093832;28;20443;-72
2024/02/05 11:02:12;;;;;;;9.87;4.70;;;9.80;1.00;;;;;;5091195;28;20556;-71
2024/02/05 11:04:39;;;;;;;7.47;4.47;;;9.70;1.00;;;;;;5088863;28;20443;-70
2024/02/05 11:07:16;;;;;;;9.70;4.60;;;9.70;1.00;;;;;;5090394;28;20573;-71
2024/02/05 11:09:47;;;;;;;10.37;5.13;;;9.70;1.00;;;;;;5089928;28;20458;-73
2024/02/05 11:12:16;;;;;;;10.37;5.33;;;9.70;1.00;;;;;;5091346;28;20500;-71
2024/02/05 11:14:48;;;;;;;8.70;4.90;;;9.70;1.00;;;;;;5090891;28;20455;-71
2024/02/05 11:17:18;;;;;;;11.40;5.13;;;9.70;1.00;;;;;;5089119;28;20986;-72
2024/02/05 11:19:45;;;;;;;9.57;5.27;;;9.70;1.00;;;;;;5091896;28;20483;-73
2024/02/05 11:22:15;;;;;;;9.50;5.57;;;9.70;1.00;;;;;;5089493;28;21052;-70
2024/02/05 11:24:42;;;;;;;11.00;5.03;;;9.70;1.00;;;;;;5089897;28;20446;-69
2024/02/05 11:27:11;;;;;;;10.83;5.03;;;9.70;1.00;;;;;;5093596;28;21001;-72
2024/02/05 11:29:43;;;;;;;10.00;5.50;;;9.70;1.00;;;;;;5091933;28;20470;-71
2024/02/05 11:32:10;;;;;;;10.90;5.67;;;9.70;1.00;;;;;;5092431;28;20474;-69
2024/02/05 11:34:38;;;;;;;9.87;5.13;;;9.60;1.00;;;;;;5090093;28;20538;-69
2024/02/05 11:37:08;;;;;;;8.67;5.83;;;9.60;1.00;;;;;;5089978;28;20550;-72
2024/02/05 11:39:37;;;;;;;9.30;5.40;;;9.70;1.00;;;;;;5092861;28;20485;-69
2024/02/05 11:42:07;;;;;;;9.77;5.23;;;9.70;1.00;;;;;;5089806;28;20469;-71
2024/02/05 11:44:34;;;;;;;11.40;6.03;;;9.80;1.00;;;;;;5093643;28;20571;-70
2024/02/05 11:47:04;;;;;;;11.30;5.23;;;9.80;1.00;;;;;;5094282;28;20992;-71
2024/02/05 11:49:32;;;;;;;12.13;5.37;;;9.90;1.00;;;;;;5092093;28;20939;-70
2024/02/05 11:51:59;;;;;;;11.97;5.90;;;10.00;1.00;;;;;;5090557;28;20484;-69
2024/02/05 11:54:26;;;;;;;13.40;5.90;;;10.00;1.00;;;;;;5089818;28;20470;-73
2024/02/05 11:56:53;;;;;;;8.87;4.57;;;10.00;1.00;;;;;;5086635;28;20539;-70
2024/02/05 11:59:20;;;;;;;10.50;5.63;;;10.00;1.00;;;;;;5087682;28;20455;-69
2024/02/05 12:01:47;;;;;;;12.17;4.77;;;10.00;1.00;;;;;;5092649;28;20513;-75
2024/02/05 12:04:16;;;;;;;12.03;5.20;;;9.90;1.00;;;;;;5090935;28;20545;-69
2024/02/05 12:06:43;;;;;;;11.57;5.50;;;9.90;1.00;;;;;;5088241;28;20529;-70
2024/02/05 12:09:12;;;;;;;11.83;5.60;;;9.80;1.00;;;;;;5086379;28;20459;-72
2024/02/05 12:11:40;;;;;;;8.00;4.90;;;9.80;1.00;;;;;;5107992;27;21394;-69
2024/02/05 12:14:08;;;;;;;8.13;4.80;;;9.80;1.00;;;;;;5103111;27;21074;-70
2024/02/05 12:16:34;;;;;;;11.53;6.07;;;9.80;1.00;;;;;;5107624;27;20920;-71
2024/02/05 12:19:02;;;;;;;12.70;5.57;;;9.80;1.00;;;;;;5111451;27;20562;-71
2024/02/05 12:21:31;;;;;;;10.80;5.10;;;9.80;1.00;;;;;;5107725;27;20518;-72
2024/02/05 12:23:58;;;;;;;8.20;5.10;;;9.80;1.00;;;;;;5108447;27;20458;-72
2024/02/05 12:26:25;;;;;;;8.20;5.27;;;9.90;1.00;;;;;;5108498;27;20611;-75
2024/02/05 12:28:53;;;;;;;10.70;4.97;;;9.80;1.00;;;;;;5108783;27;20533;-71
2024/02/05 12:31:20;;;;;;;16.73;6.37;;;9.80;1.00;;;;;;5108333;27;20465;-71
2024/02/05 12:33:56;;;;;;;12.83;5.90;;;9.80;1.00;;;;;;5107150;27;20455;-69
2024/02/05 12:36:23;;;;;;;11.83;5.73;;;9.80;1.00;;;;;;5108169;27;20997;-69
2024/02/05 12:38:51;;;;;;;10.70;5.30;;;9.80;1.00;;;;;;5111415;27;20519;-74
2024/02/05 12:41:19;;;;;;;9.40;6.27;;;9.80;1.00;;;;;;5108418;27;20552;-74
2024/02/05 12:43:46;;;;;;;7.03;5.60;;;9.80;1.00;;;;;;5106959;27;20550;-69
2024/02/05 12:46:14;;;;;;;16.80;5.30;;;9.90;1.00;;;;;;5109022;27;20485;-70
2024/02/05 12:48:41;;;;;;;8.63;5.20;;;9.90;1.00;;;;;;5108467;27;21142;-73
2024/02/05 12:51:08;;;;;;;6.90;4.63;;;10.00;1.00;;;;;;5111640;27;20504;-72
2024/02/05 12:53:38;;;;;;;10.50;5.00;;;10.10;1.00;;;;;;5108186;27;20477;-74
2024/02/05 12:56:07;;;;;;;11.63;5.43;;;10.20;1.00;;;;;;5111304;27;20457;-75
2024/02/05 12:58:35;;;;;;;13.13;6.23;;;10.30;1.00;;;;;;5111361;27;20500;-75
2024/02/05 13:01:02;;;;;;;9.93;5.43;;;10.40;1.00;;;;;;5097340;27;21055;-74
2024/02/05 13:03:33;;;;;;;12.33;5.60;;;10.40;1.00;;;;;;5110837;27;21198;-75